Flight Track Log - Related Links

Times and Time Zones

All times are in EDT time to prevent confusion due to time zone crossing. See the SWA268 flight status page for this flight to view local times or setup timezone preferences in your user account.

Time Position Orientation Groundspeed Altitude Reporting Facility
EDT Latitude Longitude Course Direction KTS MPH feet Rate Location/Type
Mon 01:43:08 PM 36.0747 -115.2111 269° West 175 201 4,700  Level Los Angeles Center
Mon 01:44:09 PM 36.0319 -115.2731 230° Southwest 269 310 7,500 3,389 Climbing Los Angeles Center
Mon 01:45:19 PM 35.9419 -115.2908 189° South 289 333 12,100 2,955 Climbing Los Angeles Center
Mon 01:46:21 PM 35.8631 -115.2381 152° Southeast 320 368 14,000 2,256 Climbing Los Angeles Center
Mon 01:47:24 PM 35.8558 -115.1133 94° East 366 421 16,800 3,072 Climbing Los Angeles Center
Mon 01:48:26 PM 35.8636 -114.9850 86° East 376 433 20,400 2,903 Climbing Los Angeles Center
Mon 01:49:28 PM 35.8711 -114.8508 86° East 390 449 22,800 2,177 Climbing Los Angeles Center
Mon 01:50:30 PM 35.8811 -114.6825 86° East 411 473 24,900 1,452 Climbing Los Angeles Center
Mon 01:51:32 PM 35.8892 -114.5258 86° East 452 520 25,800 1,355 Climbing Los Angeles Center
Mon 01:52:34 PM 35.8978 -114.3561 86° East 490 564 27,700 1,597 Climbing Los Angeles Center
Mon 01:53:36 PM 35.9078 -114.1833 86° East 503 579 29,100 1,548 Climbing Los Angeles Center
Mon 01:54:38 PM 35.9172 -114.0022 86° East 524 603 30,900 2,323 Climbing Los Angeles Center
Mon 01:55:40 PM 35.9128 -113.8297 92° East 507 583 33,900 1,984 Climbing Los Angeles Center
Mon 01:56:42 PM 35.8808 -113.6328 101° East 489 563 35,000 532 Climbing Los Angeles Center
Mon 01:57:44 PM 35.8589 -113.4947 101° East 488 562 35,000  Level Los Angeles Center
Mon 01:58:46 PM 35.8372 -113.2961 98° East 488 562 35,000 -97 Level Los Angeles Center
Mon 01:59:48 PM 35.8278 -113.1281 94° East 489 563 34,800 -524 Descending Los Angeles Center
Mon 02:00:52 PM 35.8161 -112.9633 95° East 482 555 33,900 -857 Descending Los Angeles Center
Mon 02:01:54 PM 35.8058 -112.7986 94° East 480 552 33,000 -435 Descending Los Angeles Center
Mon 02:02:56 PM 35.7950 -112.6306 94° East 487 560 33,000  Level Los Angeles Center
Mon 02:03:58 PM 35.7828 -112.4644 95° East 486 559 33,000  Level Los Angeles Center
Mon 02:05:00 PM 35.7686 -112.2667 95° East 484 557 33,000  Level Los Angeles Center
Mon 02:06:02 PM 35.7564 -112.1022 95° East 484 557 33,000  Level Los Angeles Center
Mon 02:07:04 PM 35.7442 -111.9389 95° East 481 554 33,000  Level Los Angeles Center
Mon 02:08:06 PM 35.7308 -111.7725 96° East 487 560 33,000  Level Los Angeles Center
Mon 02:09:08 PM 35.7192 -111.6094 95° East 485 558 33,000  Level Los Angeles Center
Mon 02:10:01 PM 35.7053 -111.4444 96° East 483 556 33,000  Level Albuquerque Center
Mon 02:11:03 PM 35.6933 -111.2931 96° East 475 547 33,000  Level Albuquerque Center
Mon 02:12:05 PM 35.6789 -111.1164 96° East 468 539 33,000  Level Albuquerque Center
Mon 02:13:07 PM 35.6661 -110.9647 96° East 466 536 33,000 -532 Level Albuquerque Center
Mon 02:14:09 PM 35.6514 -110.7858 96° East 470 541 31,900 -919 Descending Albuquerque Center
Mon 02:15:11 PM 35.6378 -110.6289 96° East 478 550 31,100 -919 Descending Albuquerque Center
Mon 02:16:13 PM 35.6228 -110.4419 96° East 488 562 30,000 -1,016 Descending Albuquerque Center
Mon 02:17:15 PM 35.6078 -110.2789 96° East 498 573 29,000 -484 Descending Albuquerque Center
Mon 02:18:17 PM 35.5914 -110.0928 96° East 495 570 29,000  Level Albuquerque Center
Mon 02:19:18 PM 35.5769 -109.9356 96° East 490 564 29,000  Level Albuquerque Center
Mon 02:20:20 PM 35.5608 -109.7508 96° East 489 563 29,000  Level Albuquerque Center
Mon 02:21:22 PM 35.5464 -109.5931 96° East 488 562 29,000  Level Albuquerque Center
Mon 02:22:24 PM 35.5289 -109.4086 97° East 489 563 29,000  Level Albuquerque Center
Mon 02:23:26 PM 35.5147 -109.2539 96° East 484 557 29,000  Level Albuquerque Center
Mon 02:24:28 PM 35.5000 -109.1017 97° East 477 549 29,000 -435 Level Albuquerque Center
Mon 02:25:30 PM 35.4819 -108.9242 97° East 474 545 28,100 -927 Descending Albuquerque Center
Mon 02:26:31 PM 35.4797 -108.7689 91° East 478 550 27,100 -537 Descending Albuquerque Center
Mon 02:27:33 PM 35.4842 -108.5869 88° East 480 552 27,000 -48 Descending Albuquerque Center
Mon 02:28:35 PM 35.4872 -108.4331 89° East 476 548 27,000  Level Albuquerque Center
Mon 02:29:37 PM 35.4844 -108.2525 91° East 477 549 27,000  Level Albuquerque Center
Mon 02:30:39 PM 35.4736 -108.1022 95° East 471 542 27,000 -726 Level Albuquerque Center
Mon 02:31:41 PM 35.4600 -107.9292 95° East 459 528 25,500 -1,659 Descending Albuquerque Center
Mon 02:32:42 PM 35.4517 -107.7853 94° East 447 514 23,600 -1,951 Descending Albuquerque Center
Mon 02:33:44 PM 35.4414 -107.6258 94° East 429 494 21,500 -1,964 Descending Albuquerque Center
Mon 02:34:32 PM 35.4317 -107.5175 96° East 419 482 20,000 -1,982 Descending Albuquerque Center
Mon 02:35:33 PM 35.4217 -107.3819 95° East 395 455 17,900 -2,104 Descending Albuquerque Center
Mon 02:35:49 PM 35.4208 -107.3461 92° East 398 458 17,300 -1,400 Descending Albuquerque Center
Mon 02:36:33 PM 35.3781 -107.2733 126° Southeast 345 397 16,500 -1,100 Descending Albuquerque Center
Mon 02:36:49 PM 35.3631 -107.2481 126° Southeast 359 413 16,200 -1,377 Descending Albuquerque Center
Mon 02:37:34 PM 35.3253 -107.1747 122° Southeast 342 394 15,100 -1,645 Descending Albuquerque Center
Mon 02:37:51 PM 35.3117 -107.1481 122° Southeast 348 400 14,500 -1,574 Descending Albuquerque Center
Mon 02:38:35 PM 35.2792 -107.0669 116° Southeast 337 388 13,500 -1,452 Descending Albuquerque Center
Mon 02:38:53 PM 35.2733 -107.0442 107° East 341 392 13,000 -1,500 Descending Albuquerque Center
Mon 02:39:35 PM 35.2503 -106.9597 108° East 331 381 12,000 -1,452 Descending Albuquerque Center
Mon 02:39:55 PM 35.2453 -106.9369 105° East 329 379 11,500 -1,309 Descending Albuquerque Center
Mon 02:40:30 PM 35.2242 -106.8703 111° Southeast 324 373 10,800 -968 Descending Albuquerque Center
Mon 02:40:57 PM 35.2125 -106.8336 111° Southeast 325 374 10,500 -537 Descending Albuquerque Center
Mon 02:41:37 PM 35.1878 -106.7706 116° Southeast 263 303 10,200 -492 Descending Albuquerque Center
Mon 02:41:58 PM 35.1811 -106.7489 111° Southeast 289 333 10,000 -1,600 Descending Albuquerque Center
Mon 02:42:37 PM 35.1589 -106.6897 115° Southeast 251 289 8,600 -1,839 Descending Albuquerque Center
Mon 02:43:00 PM 35.1525 -106.6681 110° East 267 307 8,100 -806 Descending Albuquerque Center
Mon 02:43:44 PM 35.1281 -106.5989 113° Southeast 264 304 7,700 -581 Descending Albuquerque Center
Mon 02:44:02 PM 35.1239 -106.5822 107° East 268 308 7,500 -885 Descending Albuquerque Center
Mon 02:44:45 PM 35.0928 -106.5561 146° Southeast 171 197 6,800 -968 Descending Albuquerque Center
Mon 02:45:04 PM 35.0872 -106.5583 198° South 209 241 6,500 -800 Descending Albuquerque Center
Mon 02:45:45 PM 35.0594 -106.5856 219° Southwest 133 153 6,000 -787 Descending Albuquerque Center
Mon 02:46:05 PM 35.0556 -106.5889 215° Southwest 166 191 5,700 -900 Descending Albuquerque Center
Mon 02:48:00 PM 35.0333 -106.6000 141° Southeast  Level FlightAware Approximate

Login

Don't have an account? Register now (free) for customized features, flight alerts, and more!